createdAt,value
2023-02-07T00:00:59.298Z,32.10
2023-02-07T00:04:03.893Z,31.90
2023-02-07T00:07:07.087Z,33.67
2023-02-07T00:10:13.434Z,33.40
2023-02-07T00:13:16.599Z,33.03
2023-02-07T00:16:20.907Z,32.40
2023-02-07T00:19:25.526Z,31.23
2023-02-07T00:22:28.762Z,33.13
2023-02-07T00:25:32.193Z,33.33
2023-02-07T00:28:36.637Z,32.30
2023-02-07T00:31:40.371Z,31.30
2023-02-07T00:34:50.490Z,32.13
2023-02-07T00:37:55.458Z,30.97
2023-02-07T00:40:58.948Z,34.53
2023-02-07T00:44:02.129Z,32.43
2023-02-07T00:47:05.358Z,33.73
2023-02-07T00:50:10.525Z,35.10
2023-02-07T00:53:14.081Z,32.37
2023-02-07T00:56:17.687Z,32.70
2023-02-07T00:59:20.748Z,33.13
2023-02-07T01:02:23.933Z,32.37
2023-02-07T01:05:28.378Z,32.87
2023-02-07T01:08:31.602Z,32.13
2023-02-07T01:11:35.114Z,31.77
2023-02-07T01:14:38.195Z,31.57
2023-02-07T01:17:41.256Z,31.10
2023-02-07T01:20:45.920Z,32.73
2023-02-07T01:23:49.493Z,31.77
2023-02-07T01:26:52.656Z,30.37
2023-02-07T01:29:55.742Z,31.73
2023-02-07T01:32:59.282Z,32.13
2023-02-07T01:36:08.040Z,31.47
2023-02-07T01:39:11.141Z,30.53
2023-02-07T01:42:15.852Z,30.70
2023-02-07T01:45:31.156Z,30.23
2023-02-07T01:48:37.738Z,29.03
2023-02-07T01:51:47.074Z,28.43
2023-02-07T01:54:55.226Z,29.17
2023-02-07T01:57:58.765Z,30.10
2023-02-07T02:01:06.651Z,28.97
2023-02-07T02:04:09.776Z,29.93
2023-02-07T02:07:15.674Z,30.13
2023-02-07T02:10:22.802Z,29.17
2023-02-07T02:13:34.796Z,30.50
2023-02-07T02:16:53.480Z,29.67
2023-02-07T02:20:42.237Z,30.30
2023-02-07T02:24:33.754Z,28.73
2023-02-07T02:28:21.118Z,28.60
2023-02-07T02:32:03.495Z,27.60
2023-02-07T02:35:14.728Z,27.43
2023-02-07T02:38:27.154Z,27.40
2023-02-07T02:41:37.929Z,28.33
2023-02-07T02:44:49.135Z,28.53
2023-02-07T02:47:53.848Z,27.57
2023-02-07T02:50:59.345Z,28.27
2023-02-07T02:54:03.184Z,27.37
2023-02-07T02:57:37.151Z,29.83
2023-02-07T03:00:57.662Z,29.03
2023-02-07T03:04:33.114Z,28.97
2023-02-07T03:07:52.674Z,26.43
2023-02-07T03:11:05.884Z,28.37
2023-02-07T03:14:21.067Z,29.60
2023-02-07T03:17:33.981Z,29.40
2023-02-07T03:20:41.023Z,29.03
2023-02-07T03:23:47.450Z,30.03
2023-02-07T03:26:54.515Z,29.43
2023-02-07T03:30:01.632Z,30.07
2023-02-07T03:33:11.592Z,31.10
2023-02-07T03:36:23.485Z,31.47
2023-02-07T03:39:28.378Z,30.50
2023-02-07T03:42:35.066Z,31.50
2023-02-07T03:45:38.812Z,30.47
2023-02-07T03:48:42.063Z,30.00
2023-02-07T03:51:45.443Z,31.30
2023-02-07T03:54:50.110Z,30.40
2023-02-07T03:57:53.258Z,31.97
2023-02-07T04:00:59.182Z,33.77
2023-02-07T04:04:02.610Z,30.93
2023-02-07T04:07:06.126Z,32.43
2023-02-07T04:10:22.153Z,31.47
2023-02-07T04:13:25.562Z,31.80
2023-02-07T04:16:29.471Z,31.60
2023-02-07T04:19:32.947Z,31.83
2023-02-07T04:22:36.073Z,32.10
2023-02-07T04:25:40.865Z,31.73
2023-02-07T04:28:44.029Z,29.07
2023-02-07T04:31:47.409Z,29.77
2023-02-07T04:34:50.457Z,29.27
2023-02-07T04:37:53.521Z,31.10
2023-02-07T04:41:03.318Z,31.27
2023-02-07T04:44:06.648Z,29.87
2023-02-07T04:47:10.157Z,31.47
2023-02-07T04:50:13.255Z,27.73
2023-02-07T04:53:16.639Z,28.37
2023-02-07T04:56:21.063Z,30.00
2023-02-07T04:59:24.140Z,28.70
2023-02-07T05:02:27.486Z,29.07
2023-02-07T05:05:30.648Z,28.07
2023-02-07T05:08:33.986Z,30.27
2023-02-07T05:11:40.145Z,29.93
2023-02-07T05:14:43.172Z,28.67
2023-02-07T05:17:46.368Z,29.43
2023-02-07T05:20:52.202Z,29.23
2023-02-07T05:23:55.543Z,27.23
2023-02-07T05:27:01.177Z,28.97
2023-02-07T05:30:05.786Z,28.87
2023-02-07T05:33:09.150Z,28.70
2023-02-07T05:36:12.865Z,28.60
2023-02-07T05:39:16.331Z,29.60
2023-02-07T05:42:21.268Z,29.13
2023-02-07T05:45:24.583Z,27.43
2023-02-07T05:48:28.137Z,28.17
2023-02-07T05:51:31.367Z,28.20
2023-02-07T05:54:34.565Z,28.63
2023-02-07T05:57:39.189Z,28.43
2023-02-07T06:00:42.684Z,27.50
2023-02-07T06:03:46.135Z,28.20
2023-02-07T06:06:49.686Z,27.63
2023-02-07T06:09:53.390Z,27.33
2023-02-07T06:12:58.190Z,28.57
2023-02-07T06:16:02.100Z,28.33
2023-02-07T06:19:07.690Z,26.20
2023-02-07T06:22:11.204Z,26.83
2023-02-07T06:25:14.467Z,27.13
2023-02-07T06:28:19.067Z,27.90
2023-02-07T06:31:22.682Z,29.53
2023-02-07T06:34:26.093Z,31.10
2023-02-07T06:37:29.404Z,32.97
2023-02-07T06:40:32.576Z,36.80
2023-02-07T06:43:37.107Z,34.40
2023-02-07T06:46:40.820Z,34.53
2023-02-07T06:49:44.185Z,33.30
2023-02-07T06:52:47.444Z,33.60
2023-02-07T06:55:51.584Z,32.40
2023-02-07T06:58:56.509Z,31.90
2023-02-07T07:02:01.673Z,32.03
2023-02-07T07:05:05.433Z,31.43
2023-02-07T07:08:09.324Z,29.80
2023-02-07T07:11:13.026Z,30.40
2023-02-07T07:14:17.520Z,29.87
2023-02-07T07:17:20.863Z,31.87
2023-02-07T07:20:27.126Z,29.27
2023-02-07T07:23:32.337Z,28.10
2023-02-07T07:26:48.380Z,30.03
2023-02-07T07:29:53.788Z,29.17
2023-02-07T07:32:57.425Z,28.63
2023-02-07T07:36:01.526Z,30.63
2023-02-07T07:39:05.717Z,29.33
2023-02-07T07:42:08.994Z,30.40
2023-02-07T07:45:28.744Z,32.07
2023-02-07T07:48:32.092Z,32.40
2023-02-07T07:51:36.043Z,30.93
2023-02-07T07:54:39.297Z,32.07
2023-02-07T07:57:42.461Z,32.63
2023-02-07T08:00:48.687Z,30.80
2023-02-07T08:03:52.026Z,30.73
2023-02-07T08:06:55.464Z,33.27
2023-02-07T08:09:58.616Z,32.10
2023-02-07T08:13:02.317Z,34.63
2023-02-07T08:16:11.117Z,34.60
2023-02-07T08:19:16.868Z,35.10
2023-02-07T08:22:20.089Z,33.90
2023-02-07T08:25:23.646Z,34.20
2023-02-07T08:28:28.197Z,35.93
2023-02-07T08:31:33.760Z,36.60
2023-02-07T08:34:37.642Z,33.23
2023-02-07T08:37:41.068Z,35.30
2023-02-07T08:40:44.469Z,35.23
2023-02-07T08:43:48.046Z,35.13
2023-02-07T08:46:52.422Z,35.80
2023-02-07T08:49:55.482Z,34.20
2023-02-07T08:52:58.612Z,33.73
2023-02-07T08:56:01.789Z,37.80
2023-02-07T08:59:04.937Z,35.13
2023-02-07T09:02:13.251Z,33.30
2023-02-07T09:05:16.787Z,35.67
2023-02-07T09:08:22.502Z,33.27
2023-02-07T09:11:28.704Z,32.97
2023-02-07T09:14:31.753Z,33.07
2023-02-07T09:17:39.261Z,37.33
2023-02-07T09:20:42.331Z,34.50
2023-02-07T09:23:47.973Z,35.30
2023-02-07T09:26:51.261Z,33.83
2023-02-07T09:29:54.388Z,34.70
2023-02-07T09:32:59.608Z,32.93
2023-02-07T09:36:03.000Z,35.23
2023-02-07T09:39:07.718Z,33.13
2023-02-07T09:42:23.898Z,34.93
2023-02-07T09:45:32.721Z,31.03
2023-02-07T09:48:47.453Z,33.57
2023-02-07T09:51:56.627Z,31.67
2023-02-07T09:55:01.317Z,31.23
2023-02-07T09:58:11.360Z,33.23
2023-02-07T10:01:18.529Z,28.70
2023-02-07T10:04:34.884Z,29.90
2023-02-07T10:07:37.892Z,27.37
2023-02-07T10:10:46.485Z,28.97
2023-02-07T10:14:24.442Z,28.70
2023-02-07T10:17:51.669Z,29.73
2023-02-07T10:21:02.125Z,27.50
2023-02-07T10:24:27.087Z,27.83
2023-02-07T10:27:33.374Z,27.33
2023-02-07T10:30:41.144Z,26.90
2023-02-07T10:33:50.718Z,27.90
2023-02-07T10:36:58.935Z,25.23
2023-02-07T10:40:07.056Z,25.43
2023-02-07T10:43:21.004Z,26.77
2023-02-07T10:46:25.208Z,25.70
2023-02-07T10:49:34.321Z,24.30
2023-02-07T10:52:43.114Z,25.07
2023-02-07T10:55:48.996Z,23.60
2023-02-07T10:58:54.207Z,23.83
2023-02-07T11:01:57.818Z,24.43
2023-02-07T11:05:05.797Z,24.00
2023-02-07T11:08:23.823Z,25.37
2023-02-07T11:11:31.926Z,23.93
2023-02-07T11:14:36.414Z,24.67
2023-02-07T11:17:41.549Z,24.03
2023-02-07T11:20:52.702Z,25.60
2023-02-07T11:24:02.193Z,24.67
2023-02-07T11:27:08.531Z,22.57
2023-02-07T11:30:20.519Z,24.47
2023-02-07T11:33:28.761Z,23.50
2023-02-07T11:36:35.793Z,23.03
2023-02-07T11:39:46.010Z,22.00
2023-02-07T11:42:51.671Z,20.80
2023-02-07T11:46:02.036Z,21.53
2023-02-07T11:49:09.151Z,20.53
2023-02-07T11:52:13.316Z,21.07
2023-02-07T11:55:23.452Z,21.07
2023-02-07T11:58:34.355Z,21.07
2023-02-07T12:01:38.945Z,20.63
2023-02-07T12:04:45.952Z,20.47
2023-02-07T12:07:53.087Z,22.00
2023-02-07T12:11:07.091Z,21.17
2023-02-07T12:14:20.321Z,21.00
2023-02-07T12:17:30.593Z,19.87
2023-02-07T12:20:37.781Z,20.60
2023-02-07T12:23:46.793Z,18.93
2023-02-07T12:26:56.829Z,18.20
2023-02-07T12:30:05.783Z,18.00
2023-02-07T12:39:46.107Z,18.37
2023-02-07T13:00:19.702Z,17.60
2023-02-07T13:03:42.403Z,16.50
2023-02-07T13:06:58.252Z,17.90
2023-02-07T13:10:15.147Z,17.53
2023-02-07T13:13:24.645Z,17.10
2023-02-07T13:16:39.328Z,17.57
2023-02-07T13:19:52.915Z,18.00
2023-02-07T13:23:04.938Z,16.00
2023-02-07T13:26:16.800Z,17.37
2023-02-07T13:29:24.793Z,16.30
2023-02-07T13:32:29.827Z,17.50
2023-02-07T13:35:38.115Z,17.97
2023-02-07T13:39:03.655Z,15.90
2023-02-07T13:42:22.700Z,16.50
2023-02-07T13:45:37.766Z,16.33
2023-02-07T13:48:46.172Z,15.83
2023-02-07T13:52:00.196Z,15.93
2023-02-07T13:55:21.130Z,14.40
2023-02-07T13:59:12.530Z,15.37
2023-02-07T14:02:20.116Z,13.37
2023-02-07T14:05:31.021Z,15.20
2023-02-07T14:08:34.568Z,14.10
2023-02-07T14:11:43.889Z,15.10
2023-02-07T14:15:01.472Z,15.73
2023-02-07T14:18:07.771Z,15.33
2023-02-07T14:21:39.729Z,13.73
2023-02-07T14:24:52.678Z,15.27
2023-02-07T14:28:30.992Z,14.43
2023-02-07T14:31:34.110Z,14.97
2023-02-07T14:35:03.044Z,14.23
2023-02-07T14:38:27.130Z,14.33
2023-02-07T14:41:34.013Z,15.83
2023-02-07T14:44:39.838Z,13.80
2023-02-07T14:47:43.860Z,14.00
2023-02-07T14:50:53.744Z,14.73
2023-02-07T14:54:05.351Z,14.20
2023-02-07T14:57:25.167Z,13.80
2023-02-07T15:00:34.868Z,15.53
2023-02-07T15:03:38.133Z,14.80
2023-02-07T15:06:44.105Z,16.53
2023-02-07T15:09:48.768Z,15.83
2023-02-07T15:12:56.332Z,15.97
2023-02-07T15:16:03.069Z,15.67
2023-02-07T15:19:16.091Z,16.90
2023-02-07T15:22:27.311Z,16.47
2023-02-07T15:25:32.847Z,16.90
2023-02-07T15:28:36.525Z,14.60
2023-02-07T15:31:41.473Z,17.07
2023-02-07T15:34:46.264Z,16.80
2023-02-07T15:37:52.421Z,16.53
2023-02-07T15:41:04.740Z,16.03
2023-02-07T15:44:14.643Z,15.77
2023-02-07T15:47:38.980Z,17.63
2023-02-07T15:50:42.261Z,17.90
2023-02-07T15:53:45.529Z,16.90
2023-02-07T15:56:58.572Z,17.67
2023-02-07T16:00:10.323Z,16.73
2023-02-07T16:03:22.148Z,16.87
2023-02-07T16:06:27.715Z,17.67
2023-02-07T16:09:40.539Z,17.00
2023-02-07T16:12:52.970Z,16.97
2023-02-07T16:15:59.231Z,18.27
2023-02-07T16:19:11.079Z,18.40
2023-02-07T16:22:18.056Z,18.80
2023-02-07T16:25:23.107Z,19.93
2023-02-07T16:28:28.348Z,20.70
2023-02-07T16:31:32.557Z,23.27
2023-02-07T16:34:35.711Z,23.37
2023-02-07T16:37:38.829Z,21.10
2023-02-07T16:40:42.080Z,21.60
2023-02-07T16:43:50.013Z,21.07
2023-02-07T16:46:53.555Z,23.07
2023-02-07T16:49:57.056Z,21.93
2023-02-07T16:53:00.321Z,22.17
2023-02-07T16:56:04.200Z,25.17
2023-02-07T16:59:12.863Z,23.77
2023-02-07T17:02:17.172Z,26.23
2023-02-07T17:05:22.301Z,24.37
2023-02-07T17:08:30.049Z,25.07
2023-02-07T17:11:33.066Z,25.40
2023-02-07T17:14:38.217Z,23.30
2023-02-07T17:17:41.507Z,23.20
2023-02-07T17:20:44.800Z,24.27
2023-02-07T17:23:49.082Z,22.53
2023-02-07T17:26:55.039Z,22.17
2023-02-07T17:29:59.916Z,23.00
2023-02-07T17:33:03.237Z,22.53
2023-02-07T17:36:08.719Z,22.47
2023-02-07T17:39:13.859Z,22.00
2023-02-07T17:42:18.257Z,21.60
2023-02-07T17:45:28.390Z,25.17
2023-02-07T17:48:33.845Z,24.37
2023-02-07T17:51:36.943Z,25.60
2023-02-07T17:54:42.856Z,23.03
2023-02-07T17:57:47.121Z,25.00
2023-02-07T18:00:51.765Z,23.80
2023-02-07T18:03:56.997Z,23.40
2023-02-07T18:07:00.003Z,24.07
2023-02-07T18:10:03.317Z,24.73
2023-02-07T18:13:06.504Z,24.63
2023-02-07T18:16:14.224Z,25.67
2023-02-07T18:19:18.845Z,23.37
2023-02-07T18:22:22.560Z,23.60
2023-02-07T18:25:27.772Z,24.07
2023-02-07T18:28:36.800Z,23.07
2023-02-07T18:31:41.349Z,23.13
2023-02-07T18:34:46.504Z,24.27
2023-02-07T18:37:52.768Z,26.40
2023-02-07T18:40:55.804Z,24.13
2023-02-07T18:43:59.072Z,26.90
2023-02-07T18:47:25.979Z,22.60
2023-02-07T18:50:29.362Z,26.03
2023-02-07T18:53:32.473Z,26.13
2023-02-07T18:56:41.897Z,25.53
2023-02-07T18:59:48.849Z,26.67
2023-02-07T19:02:53.262Z,30.80
2023-02-07T19:06:07.881Z,35.90
2023-02-07T19:09:16.924Z,31.13
2023-02-07T19:12:31.092Z,31.83
2023-02-07T19:15:34.284Z,31.10
2023-02-07T19:19:22.530Z,32.17
2023-02-07T19:22:35.657Z,30.93
2023-02-07T19:25:46.602Z,31.00
2023-02-07T19:28:53.791Z,31.07
2023-02-07T19:32:00.740Z,29.63
2023-02-07T19:35:07.624Z,28.70
2023-02-07T19:38:20.605Z,28.17
2023-02-07T19:41:33.487Z,31.10
2023-02-07T19:45:23.338Z,28.57
2023-02-07T19:48:30.168Z,30.63
2023-02-07T19:51:40.495Z,30.43
2023-02-07T19:54:43.893Z,29.47
2023-02-07T19:57:51.836Z,31.57
2023-02-07T20:01:00.752Z,32.77
2023-02-07T20:04:14.001Z,34.93
2023-02-07T20:07:21.470Z,36.40
2023-02-07T20:10:29.929Z,34.57
2023-02-07T20:13:35.536Z,33.57
2023-02-07T20:16:40.106Z,31.80
2023-02-07T20:19:46.827Z,37.03
2023-02-07T20:22:56.184Z,34.53
2023-02-07T20:26:19.796Z,36.77
2023-02-07T20:29:25.148Z,34.93
2023-02-07T20:32:37.438Z,35.07
2023-02-07T20:35:43.827Z,33.50
2023-02-07T20:38:53.550Z,33.60
2023-02-07T20:41:59.210Z,35.23
2023-02-07T20:45:04.978Z,34.43
2023-02-07T20:48:15.788Z,33.47
2023-02-07T20:54:40.093Z,35.63
2023-02-07T20:57:50.994Z,32.90
2023-02-07T21:00:54.092Z,31.97
2023-02-07T21:04:00.167Z,31.80
2023-02-07T21:07:03.927Z,32.83
2023-02-07T21:10:15.083Z,31.60
2023-02-07T21:13:20.732Z,32.73
2023-02-07T21:16:24.474Z,34.00
2023-02-07T21:19:29.040Z,34.97
2023-02-07T21:22:32.190Z,34.23
2023-02-07T21:25:42.333Z,33.63
2023-02-07T21:28:49.947Z,37.00
2023-02-07T21:31:53.794Z,33.70
2023-02-07T21:34:59.129Z,33.13
2023-02-07T21:38:09.273Z,32.97
2023-02-07T21:41:31.886Z,33.33
2023-02-07T21:44:49.262Z,35.27
2023-02-07T21:48:00.345Z,33.80
2023-02-07T21:51:14.063Z,33.50
2023-02-07T21:54:17.920Z,34.23
2023-02-07T21:57:27.327Z,33.87
2023-02-07T22:00:40.358Z,33.13
2023-02-07T22:03:50.045Z,34.27
2023-02-07T22:06:56.421Z,38.67
2023-02-07T22:09:59.917Z,33.50
2023-02-07T22:13:04.672Z,33.80
2023-02-07T22:16:09.911Z,34.33
2023-02-07T22:19:18.379Z,31.73
2023-02-07T22:22:21.539Z,32.03
2023-02-07T22:25:25.190Z,34.27
2023-02-07T22:28:29.920Z,32.33
2023-02-07T22:31:38.177Z,33.70
2023-02-07T22:34:42.477Z,32.83
2023-02-07T22:37:46.192Z,33.20
2023-02-07T22:40:49.396Z,32.67
2023-02-07T22:43:53.907Z,31.93
2023-02-07T22:46:57.009Z,33.10
2023-02-07T22:50:00.086Z,33.57
2023-02-07T22:53:03.458Z,34.20
2023-02-07T22:56:07.703Z,34.83
2023-02-07T22:59:12.356Z,34.50
2023-02-07T23:02:15.645Z,35.80
2023-02-07T23:05:19.251Z,34.30
2023-02-07T23:08:22.501Z,33.90
2023-02-07T23:11:26.233Z,34.50
2023-02-07T23:14:32.995Z,34.33
2023-02-07T23:17:36.244Z,35.10
2023-02-07T23:20:39.694Z,31.93
2023-02-07T23:23:44.359Z,35.00
2023-02-07T23:26:47.380Z,33.53
2023-02-07T23:29:52.375Z,34.57
2023-02-07T23:32:55.430Z,38.43
2023-02-07T23:35:58.530Z,38.37
2023-02-07T23:39:05.503Z,39.47
2023-02-07T23:42:10.531Z,38.17
2023-02-07T23:45:15.101Z,38.10
2023-02-07T23:48:18.742Z,36.63
2023-02-07T23:51:21.959Z,35.83
2023-02-07T23:54:25.491Z,36.33
2023-02-07T23:57:28.681Z,38.33
